createdAt,value
2023-05-06T00:00:19.524Z,99602.69
2023-05-06T00:02:48.523Z,99601.00
2023-05-06T00:05:16.073Z,99598.28
2023-05-06T00:07:43.334Z,99592.50
2023-05-06T00:10:10.682Z,99596.03
2023-05-06T00:12:38.087Z,99597.69
2023-05-06T00:15:06.531Z,99593.09
2023-05-06T00:17:33.877Z,99586.44
2023-05-06T00:20:02.730Z,99590.78
2023-05-06T00:22:30.037Z,99583.09
2023-05-06T00:24:57.304Z,99583.50
2023-05-06T00:27:24.831Z,99575.03
2023-05-06T00:29:52.114Z,99570.63
2023-05-06T00:32:19.436Z,99571.41
2023-05-06T00:34:46.828Z,99565.16
2023-05-06T00:37:15.499Z,99564.75
2023-05-06T04:46:51.308Z,99376.66
2023-05-06T04:49:19.167Z,99385.75
2023-05-06T04:51:46.458Z,99385.56
2023-05-06T04:54:13.752Z,99385.31
2023-05-06T04:56:41.098Z,99391.13
2023-05-06T04:59:08.462Z,99385.22
2023-05-06T05:01:35.846Z,99384.78
2023-05-06T05:04:04.806Z,99387.16
2023-05-06T05:06:32.194Z,99397.25
2023-05-06T05:08:59.832Z,99387.72
2023-05-06T05:11:27.264Z,99390.28
2023-05-06T05:13:56.845Z,99383.91
2023-05-06T05:16:24.960Z,99388.63
2023-05-06T05:18:55.311Z,99391.56
2023-05-06T05:21:24.049Z,99391.19
2023-05-06T05:23:51.312Z,99390.88
2023-05-06T05:26:18.599Z,99388.56
2023-05-06T05:28:45.870Z,99391.13
2023-05-06T05:31:13.235Z,99389.16
2023-05-06T05:33:40.524Z,99381.31
2023-05-06T05:36:08.177Z,99386.81
2023-05-06T05:38:36.892Z,99384.63
2023-05-06T05:41:04.632Z,99384.47
2023-05-06T05:43:35.040Z,99387.47
2023-05-06T05:46:02.398Z,99380.72
2023-05-06T05:48:29.862Z,99382.88
2023-05-06T05:50:57.145Z,99384.28
2023-05-06T05:53:24.467Z,99383.13
2023-05-06T05:55:54.093Z,99381.59
2023-05-06T05:58:21.521Z,99377.25
2023-05-06T06:00:48.848Z,99375.16
2023-05-06T06:03:17.885Z,99368.25
2023-05-06T06:05:45.463Z,99366.53
2023-05-06T06:08:13.176Z,99365.06
2023-05-06T06:10:40.473Z,99350.94
2023-05-06T06:13:09.215Z,99351.69
2023-05-06T06:15:36.596Z,99354.81
2023-05-06T06:18:04.224Z,99354.19
2023-05-06T06:20:31.633Z,99356.50
2023-05-06T06:22:58.980Z,99349.69
2023-05-06T06:25:26.387Z,99350.09
2023-05-06T06:27:54.768Z,99353.81
2023-05-06T06:30:23.610Z,99356.94
2023-05-06T06:32:52.421Z,99350.00
2023-05-06T06:35:20.089Z,99359.63
2023-05-06T06:37:47.560Z,99346.78
2023-05-06T06:40:15.476Z,99353.63
2023-05-06T06:42:42.756Z,99353.00
2023-05-06T06:45:11.242Z,99346.25
2023-05-06T06:47:40.302Z,99340.22
2023-05-06T06:50:08.725Z,99352.91
2023-05-06T06:52:36.082Z,99347.44
2023-05-06T06:55:03.804Z,99347.94
2023-05-06T06:57:31.088Z,99343.69
2023-05-06T06:59:58.404Z,99346.50
2023-05-06T07:02:25.785Z,99335.78
2023-05-06T07:04:54.508Z,99335.09
2023-05-06T07:07:21.811Z,99328.16
2023-05-06T07:09:49.107Z,99325.53
2023-05-06T07:12:16.495Z,99331.22
2023-05-06T07:14:43.793Z,99324.94
2023-05-06T07:17:11.168Z,99330.69
2023-05-06T07:19:38.548Z,99334.84
2023-05-06T07:22:07.299Z,99152.78
2023-05-06T07:24:34.625Z,99336.34
2023-05-06T07:27:02.198Z,99335.75
2023-05-06T07:29:29.601Z,99330.38
2023-05-06T07:31:56.913Z,99333.63
2023-05-06T07:34:24.231Z,99331.63
2023-05-06T07:36:51.572Z,99323.22
2023-05-06T07:39:20.268Z,99319.19
2023-05-06T07:41:47.590Z,99325.09
2023-05-06T07:44:14.881Z,99320.28
2023-05-06T07:46:42.301Z,99320.75
2023-05-06T07:49:09.777Z,99320.50
2023-05-06T07:51:37.100Z,99323.09
2023-05-06T07:54:04.729Z,99317.19
2023-05-06T07:56:33.428Z,99319.13
2023-05-06T07:59:00.759Z,99317.63
2023-05-06T08:01:28.357Z,99319.34
2023-05-06T08:03:55.853Z,99322.06
2023-05-06T08:06:23.288Z,99326.28
2023-05-06T08:08:50.580Z,99312.41
2023-05-06T08:11:19.369Z,99314.63
2023-05-06T08:13:48.208Z,99314.72
2023-05-06T08:16:15.847Z,99317.97
2023-05-06T08:18:43.158Z,99317.09
2023-05-06T08:21:10.519Z,99327.06
2023-05-06T08:23:37.906Z,99326.09
2023-05-06T08:26:05.172Z,99323.09
2023-05-06T08:28:35.487Z,99317.72
2023-05-06T08:31:04.183Z,99327.03
2023-05-06T08:33:31.495Z,99322.94
2023-05-06T08:35:59.138Z,99320.50
2023-05-06T08:38:26.843Z,99333.13
2023-05-06T08:40:54.635Z,99329.47
2023-05-06T08:43:22.053Z,99324.88
2023-05-06T08:45:49.775Z,99327.97
2023-05-06T08:48:18.690Z,99331.47
2023-05-06T08:50:48.848Z,99334.03
2023-05-06T08:53:16.805Z,99328.69
2023-05-06T08:55:45.321Z,99331.38
2023-05-06T08:58:16.305Z,99326.00
2023-05-06T09:00:44.290Z,99329.56
2023-05-06T09:03:11.700Z,99333.44
2023-05-06T09:05:40.489Z,99329.69
2023-05-06T09:08:07.831Z,99336.66
2023-05-06T09:10:43.098Z,99333.53
2023-05-06T09:13:12.032Z,99341.22
2023-05-06T09:15:40.113Z,99340.13
2023-05-06T09:18:07.816Z,99338.44
2023-05-06T09:20:35.385Z,99336.72
2023-05-06T09:23:04.149Z,99341.16
2023-05-06T09:25:31.764Z,99334.25
2023-05-06T09:28:04.505Z,99340.03
2023-05-06T09:30:31.808Z,99343.22
2023-05-06T09:32:59.400Z,99332.53
2023-05-06T09:35:27.573Z,99336.50
2023-05-06T09:37:54.880Z,99346.47
2023-05-06T09:40:24.761Z,99340.53
2023-05-06T09:42:52.129Z,99337.63
2023-05-06T09:45:19.414Z,99336.63
2023-05-06T09:47:47.050Z,99339.22
2023-05-06T09:50:14.375Z,99334.56
2023-05-06T09:52:45.057Z,99335.69
2023-05-06T09:55:12.847Z,99335.41
2023-05-06T09:57:41.829Z,99328.94
2023-05-06T10:00:10.411Z,99328.56
2023-05-06T10:02:40.262Z,99327.78
2023-05-06T10:05:09.966Z,99328.44
2023-05-06T10:07:38.642Z,99330.41
2023-05-06T10:10:08.518Z,99333.91
2023-05-06T10:12:36.340Z,99329.22
2023-05-06T10:15:06.197Z,99330.25
2023-05-06T10:17:35.241Z,99336.38
2023-05-06T10:20:04.474Z,99341.44
2023-05-06T10:22:41.381Z,99337.41
2023-05-06T10:25:16.631Z,99343.00
2023-05-06T10:27:45.379Z,99343.84
2023-05-06T10:30:15.842Z,99340.09
2023-05-06T10:32:45.372Z,99333.47
2023-05-06T10:35:35.803Z,99338.00
2023-05-06T10:38:05.004Z,99336.16
2023-05-06T10:40:32.562Z,99333.16
2023-05-06T10:43:23.424Z,99332.19
2023-05-06T10:46:10.759Z,99336.81
2023-05-06T10:48:39.603Z,99340.16
2023-05-06T10:51:28.026Z,99340.88
2023-05-06T10:54:00.369Z,99341.00
2023-05-06T10:56:27.848Z,99326.75
2023-05-06T10:58:55.196Z,99328.91
2023-05-06T11:01:26.886Z,99331.78
2023-05-06T11:03:54.762Z,99344.94
2023-05-06T11:06:36.115Z,99341.16
2023-05-06T11:09:05.229Z,99341.69
2023-05-06T11:11:57.697Z,99344.69
2023-05-06T11:14:27.322Z,99335.13
2023-05-06T11:16:57.801Z,99336.00
2023-05-06T11:19:26.964Z,99331.09
2023-05-06T11:21:55.162Z,99329.44
2023-05-06T11:24:24.102Z,99325.88
2023-05-06T11:26:52.143Z,99329.72
2023-05-06T11:29:19.834Z,99326.09
2023-05-06T11:31:47.498Z,99317.91
2023-05-06T11:34:23.603Z,99316.47
2023-05-06T11:36:57.545Z,99318.38
2023-05-06T11:39:25.594Z,99317.25
2023-05-06T11:41:53.200Z,99314.31
2023-05-06T11:44:31.697Z,99311.63
2023-05-06T11:47:00.704Z,99308.88
2023-05-06T11:49:29.644Z,99320.94
2023-05-06T11:51:57.214Z,99328.00
2023-05-06T11:54:26.231Z,99325.59
2023-05-06T11:56:55.068Z,99332.97
2023-05-06T11:59:30.613Z,99335.56
2023-05-06T12:01:59.790Z,99331.25
2023-05-06T12:04:27.691Z,99325.25
2023-05-06T12:06:56.671Z,99331.03
2023-05-06T12:09:25.038Z,99329.97
2023-05-06T12:11:52.815Z,99328.03
2023-05-06T12:14:20.417Z,99335.75
2023-05-06T12:16:47.863Z,99332.75
2023-05-06T12:19:16.815Z,99334.44
2023-05-06T12:21:44.696Z,99334.66
2023-05-06T12:24:13.889Z,99339.66
2023-05-06T12:26:48.611Z,99339.09
2023-05-06T12:29:17.106Z,99349.19
2023-05-06T12:31:45.510Z,99346.69
2023-05-06T12:34:13.302Z,99342.31
2023-05-06T12:36:42.233Z,99342.25
2023-05-06T12:39:09.654Z,99345.59
2023-05-06T12:41:40.461Z,99351.66
2023-05-06T12:44:30.156Z,99340.47
2023-05-06T12:46:57.496Z,99338.00
2023-05-06T12:49:24.922Z,99341.00
2023-05-06T12:52:08.496Z,99337.97
2023-05-06T12:54:36.167Z,99342.91
2023-05-06T12:57:05.283Z,99351.94
2023-05-06T12:59:33.074Z,99345.66
2023-05-06T13:02:00.431Z,99363.75
2023-05-06T13:04:27.776Z,99351.69
2023-05-06T13:06:55.206Z,99357.97
2023-05-06T13:09:22.952Z,99355.53
2023-05-06T13:11:50.550Z,99373.34
2023-05-06T13:14:19.207Z,99373.34
2023-05-06T13:16:46.682Z,99365.38
2023-05-06T13:19:30.713Z,99367.56
2023-05-06T13:21:59.982Z,99375.53
2023-05-06T13:24:27.505Z,99371.72
2023-05-06T13:26:54.853Z,99378.53
2023-05-06T13:29:23.848Z,99377.19
2023-05-06T13:31:51.502Z,99381.56
2023-05-06T13:34:19.021Z,99383.47
2023-05-06T13:36:46.364Z,99387.84
2023-05-06T13:39:13.684Z,99391.66
2023-05-06T13:41:40.945Z,99399.31
2023-05-06T13:44:08.379Z,99398.47
2023-05-06T13:46:37.045Z,99415.19
2023-05-06T13:49:04.391Z,99408.00
2023-05-06T13:51:32.501Z,99410.47
2023-05-06T13:53:59.846Z,99418.72
2023-05-06T13:56:27.391Z,99420.91
2023-05-06T13:58:54.819Z,99426.84
2023-05-06T14:01:23.057Z,99425.28
2023-05-06T14:03:52.054Z,99441.69
2023-05-06T14:06:19.794Z,99439.44
2023-05-06T14:08:47.398Z,99437.97
2023-05-06T14:11:14.720Z,99434.25
2023-05-06T14:13:42.018Z,99436.97
2023-05-06T14:16:09.378Z,99447.38
2023-05-06T14:18:36.785Z,99448.34
2023-05-06T14:21:05.494Z,99447.69
2023-05-06T14:23:32.805Z,99455.53
2023-05-06T14:26:00.231Z,99452.81
2023-05-06T14:28:27.581Z,99450.00
2023-05-06T14:30:54.865Z,99457.00
2023-05-06T14:33:22.238Z,99454.06
2023-05-06T14:35:51.245Z,99469.16
2023-05-06T14:38:20.037Z,99453.38
2023-05-06T14:40:47.387Z,99464.50
2023-05-06T14:43:14.655Z,99463.47
2023-05-06T14:45:41.983Z,99482.28
2023-05-06T14:48:09.317Z,99479.34
2023-05-06T14:50:36.664Z,99479.78
2023-05-06T14:53:04.224Z,99476.69
2023-05-06T14:55:32.962Z,99473.38
2023-05-06T14:58:00.241Z,99472.53
2023-05-06T15:00:27.752Z,99470.91
2023-05-06T15:02:55.127Z,99472.16
2023-05-06T15:05:22.546Z,99472.41
2023-05-06T15:07:49.873Z,99457.50
2023-05-06T15:10:17.327Z,99468.31
2023-05-06T15:12:46.004Z,99475.06
2023-05-06T15:15:13.660Z,99483.97
2023-05-06T15:17:41.087Z,99482.34
2023-05-06T15:20:09.368Z,99483.66
2023-05-06T15:22:39.189Z,99475.19
2023-05-06T15:25:09.358Z,99485.75
2023-05-06T15:27:38.112Z,99478.53
2023-05-06T15:30:08.353Z,99478.41
2023-05-06T15:32:35.713Z,99482.78
2023-05-06T15:35:03.124Z,99478.63
2023-05-06T15:37:32.096Z,99465.72
2023-05-06T15:39:59.438Z,99464.09
2023-05-06T15:42:26.713Z,99471.53
2023-05-06T15:44:54.209Z,99469.56
2023-05-06T15:47:22.877Z,99471.84
2023-05-06T15:49:54.767Z,99464.72
2023-05-06T15:52:22.449Z,99491.13
2023-05-06T15:54:50.312Z,99483.13
2023-05-06T15:57:17.858Z,99491.78
2023-05-06T15:59:45.187Z,99489.63
2023-05-06T16:02:26.918Z,99487.47
2023-05-06T16:04:56.387Z,99484.94
2023-05-06T16:07:23.867Z,99488.78
2023-05-06T16:09:51.276Z,99480.00
2023-05-06T16:12:18.594Z,99478.56
2023-05-06T16:14:45.885Z,99477.69
2023-05-06T16:17:13.191Z,99486.91
2023-05-06T16:19:40.461Z,99496.28
2023-05-06T16:22:09.100Z,99507.06
2023-05-06T16:24:36.412Z,99518.38
2023-05-06T16:27:03.760Z,99534.38
2023-05-06T16:29:31.183Z,99531.09
2023-05-06T16:31:58.630Z,99535.75
2023-05-06T16:34:26.049Z,99531.28
2023-05-06T16:36:53.409Z,99528.81
2023-05-06T16:39:22.095Z,99522.59
2023-05-06T16:41:49.425Z,99524.22
2023-05-06T16:44:16.751Z,99528.78
2023-05-06T16:46:44.148Z,99525.09
2023-05-06T16:49:11.584Z,99515.91
2023-05-06T16:51:38.887Z,99523.59
2023-05-06T16:54:06.226Z,99521.94
2023-05-06T16:56:48.218Z,99530.00
2023-05-06T16:59:20.117Z,99530.97
2023-05-06T17:01:49.150Z,99537.88
2023-05-06T17:04:16.769Z,99543.78
2023-05-06T17:06:44.101Z,99545.69
2023-05-06T17:09:11.384Z,99547.69
2023-05-06T17:11:40.028Z,99550.88
2023-05-06T17:14:07.365Z,99542.84
2023-05-06T17:16:34.755Z,99548.75
2023-05-06T17:19:02.322Z,99552.19
2023-05-06T17:21:29.663Z,99562.06
2023-05-06T17:23:57.796Z,99559.38
2023-05-06T17:26:25.189Z,99565.03
2023-05-06T17:28:54.261Z,99563.13
2023-05-06T17:31:21.712Z,99567.75
2023-05-06T17:33:49.219Z,99566.09
2023-05-06T17:36:18.574Z,99564.56
2023-05-06T17:38:45.913Z,99563.28
2023-05-06T17:41:13.216Z,99561.94
2023-05-06T17:43:40.580Z,99565.88
2023-05-06T17:46:09.391Z,99566.84
2023-05-06T17:48:36.827Z,99559.41
2023-05-06T17:51:04.197Z,99565.06
2023-05-06T17:53:31.531Z,99562.56
2023-05-06T17:55:59.093Z,99559.56
2023-05-06T17:58:26.411Z,99572.09
2023-05-06T18:00:53.746Z,99567.28
2023-05-06T18:03:22.514Z,99575.97
2023-05-06T18:05:49.886Z,99575.53
2023-05-06T18:08:17.411Z,99589.31
2023-05-06T18:10:44.788Z,99590.84
2023-05-06T18:13:12.293Z,99587.66
2023-05-06T18:15:39.676Z,99593.84
2023-05-06T18:18:07.022Z,99593.94
2023-05-06T18:20:35.708Z,99610.66
2023-05-06T18:23:03.330Z,99608.13
2023-05-06T18:25:30.635Z,99607.50
2023-05-06T18:27:57.917Z,99609.63
2023-05-06T18:30:25.261Z,99612.06
2023-05-06T18:32:54.553Z,99613.16
2023-05-06T18:35:23.362Z,99626.47
2023-05-06T18:37:52.060Z,99644.13
2023-05-06T18:40:19.451Z,99646.88
2023-05-06T18:42:47.094Z,99655.75
2023-05-06T18:45:14.450Z,99668.75
2023-05-06T18:47:41.773Z,99670.41
2023-05-06T18:50:09.572Z,99662.91
2023-05-06T18:52:36.824Z,99666.25
2023-05-06T18:55:06.251Z,99674.44
2023-05-06T18:57:33.550Z,99669.97
2023-05-06T19:00:00.838Z,99668.88
2023-05-06T19:02:28.210Z,99680.53
2023-05-06T19:04:55.644Z,99690.03
2023-05-06T19:07:22.997Z,99694.19
2023-05-06T19:09:50.348Z,99706.81
2023-05-06T19:12:19.032Z,99698.06
2023-05-06T19:14:46.302Z,99709.56
2023-05-06T19:17:13.682Z,99720.16
2023-05-06T19:19:41.073Z,99717.03
2023-05-06T19:22:08.392Z,99728.72
2023-05-06T19:24:35.738Z,99735.00
2023-05-06T19:27:03.197Z,99738.72
2023-05-06T19:29:31.890Z,99759.47
2023-05-06T19:31:59.936Z,99766.28
2023-05-06T19:34:27.215Z,99767.28
2023-05-06T19:36:54.721Z,99786.53
2023-05-06T19:39:21.978Z,99789.63
2023-05-06T19:41:49.437Z,99802.97
2023-05-06T19:44:16.824Z,99825.19
2023-05-06T19:46:45.534Z,99827.56
2023-05-06T19:49:12.820Z,99842.44
2023-05-06T19:51:40.148Z,99845.72
2023-05-06T19:54:07.411Z,99851.34
2023-05-06T19:56:34.704Z,99863.06
2023-05-06T19:59:01.994Z,99864.53
2023-05-06T20:01:29.324Z,99862.66
2023-05-06T20:03:58.340Z,99867.00
2023-05-06T20:06:25.858Z,99872.09
2023-05-06T20:08:53.121Z,99871.69
2023-05-06T20:11:20.423Z,99877.31
2023-05-06T20:13:47.679Z,99877.94
2023-05-06T20:16:15.044Z,99886.06
2023-05-06T20:18:42.361Z,99885.44
2023-05-06T20:21:11.071Z,99884.00
2023-05-06T20:23:38.335Z,99881.28
2023-05-06T20:26:05.626Z,99878.59
2023-05-06T20:28:32.998Z,99882.13
2023-05-06T20:31:00.378Z,99900.66
2023-05-06T20:33:27.692Z,99912.09
2023-05-06T20:35:55.030Z,99920.88
2023-05-06T20:38:23.970Z,99937.09
2023-05-06T20:40:51.254Z,99941.91
2023-05-06T20:43:18.529Z,99951.91
2023-05-06T20:45:45.882Z,99958.13
2023-05-06T20:48:14.995Z,99971.59
2023-05-06T20:50:42.740Z,99979.69
2023-05-06T20:53:10.099Z,99972.22
2023-05-06T20:55:38.850Z,99969.59
2023-05-06T20:58:06.183Z,99973.13
2023-05-06T21:00:33.458Z,99967.16
2023-05-06T21:03:01.124Z,99970.69
2023-05-06T21:05:28.558Z,99973.16
2023-05-06T21:07:55.864Z,99967.97
2023-05-06T21:10:23.165Z,99970.19
2023-05-06T21:12:51.909Z,99988.25
2023-05-06T21:15:19.426Z,99998.13
2023-05-06T21:17:46.850Z,99984.56
2023-05-06T21:20:14.251Z,99973.13
2023-05-06T21:22:41.673Z,99979.25
2023-05-06T21:25:09.700Z,99980.03
2023-05-06T21:27:37.132Z,99978.13
2023-05-06T21:30:07.360Z,99974.44
2023-05-06T21:32:34.694Z,99984.44
2023-05-06T21:35:02.361Z,99977.97
2023-05-06T21:37:29.675Z,99972.34
2023-05-06T21:39:56.976Z,99966.41
2023-05-06T21:42:24.260Z,99973.50
2023-05-06T21:44:51.547Z,99979.75
2023-05-06T21:47:20.238Z,99983.56
2023-05-06T21:49:47.673Z,99985.75
2023-05-06T21:52:15.014Z,99974.47
2023-05-06T21:54:45.346Z,99975.34
2023-05-06T21:57:12.681Z,99984.44
2023-05-06T21:59:40.056Z,99986.13
2023-05-06T22:02:07.632Z,99984.81
2023-05-06T22:04:36.517Z,99989.19
2023-05-06T22:07:04.026Z,99995.63
2023-05-06T22:09:31.371Z,99993.13
2023-05-06T22:11:58.724Z,99999.59
2023-05-06T22:14:30.230Z,100001.13
2023-05-06T22:17:05.823Z,100000.47
2023-05-06T22:19:33.370Z,100001.31
2023-05-06T22:22:02.698Z,100011.59
2023-05-06T22:24:29.988Z,100007.13
2023-05-06T22:26:57.572Z,100017.63
2023-05-06T22:29:24.948Z,100019.53
2023-05-06T22:31:52.255Z,100021.91
2023-05-06T22:34:20.517Z,100018.38
2023-05-06T22:36:47.782Z,100015.88
2023-05-06T22:39:16.610Z,100014.34
2023-05-06T22:41:43.924Z,100002.75
2023-05-06T22:44:11.183Z,100011.06
2023-05-06T22:46:38.471Z,100013.34
2023-05-06T22:49:05.774Z,100012.31
2023-05-06T22:51:33.211Z,100024.38
2023-05-06T22:54:00.700Z,100014.00
2023-05-06T22:56:29.402Z,100015.69
2023-05-06T22:58:56.715Z,100020.63
2023-05-06T23:01:24.170Z,100020.78
2023-05-06T23:03:51.556Z,100018.59
2023-05-06T23:06:19.118Z,100006.09
2023-05-06T23:08:46.473Z,100004.13
2023-05-06T23:11:13.742Z,100000.94
2023-05-06T23:13:42.372Z,99989.41
2023-05-06T23:16:09.673Z,99986.81
2023-05-06T23:18:37.017Z,99994.84
2023-05-06T23:21:04.670Z,99986.13
2023-05-06T23:23:32.239Z,99977.91
2023-05-06T23:25:59.722Z,99976.31
2023-05-06T23:28:27.892Z,99975.03
2023-05-06T23:30:56.560Z,99980.47
2023-05-06T23:33:24.062Z,99975.13
2023-05-06T23:35:51.392Z,99971.25
2023-05-06T23:38:18.718Z,99966.94
2023-05-06T23:40:46.069Z,99977.16
2023-05-06T23:43:13.393Z,99976.78
2023-05-06T23:45:40.718Z,99971.13
2023-05-06T23:48:09.496Z,99965.63
2023-05-06T23:50:36.820Z,99960.06
2023-05-06T23:53:04.085Z,99954.53
2023-05-06T23:55:31.647Z,99949.66
2023-05-06T23:57:58.942Z,99951.78
